createdAt,value
2023-10-07T00:01:27.381Z,16.80
2023-10-07T00:03:55.388Z,16.75
2023-10-07T00:06:28.126Z,16.80
2023-10-07T00:08:55.478Z,16.73
2023-10-07T00:11:23.299Z,16.72
2023-10-07T00:13:55.698Z,16.70
2023-10-07T00:16:25.150Z,16.72
2023-10-07T00:18:52.898Z,16.75
2023-10-07T00:21:28.803Z,16.66
2023-10-07T00:23:58.680Z,16.74
2023-10-07T00:26:28.732Z,16.71
2023-10-07T00:29:02.546Z,16.72
2023-10-07T00:31:34.449Z,16.72
2023-10-07T00:34:28.563Z,16.73
2023-10-07T00:36:59.505Z,16.70
2023-10-07T00:39:32.601Z,16.73
2023-10-07T00:42:00.327Z,16.65
2023-10-07T00:44:33.807Z,16.70
2023-10-07T00:47:22.532Z,16.71
2023-10-07T00:49:50.391Z,16.74
2023-10-07T00:52:30.683Z,16.68
2023-10-07T00:55:05.348Z,16.64
2023-10-07T00:57:36.105Z,16.74
2023-10-07T01:00:30.109Z,16.68
2023-10-07T01:03:16.101Z,16.70
2023-10-07T01:05:59.558Z,16.67
2023-10-07T01:08:36.606Z,16.65
2023-10-07T01:11:16.113Z,16.77
2023-10-07T01:13:52.902Z,16.73
2023-10-07T01:16:41.693Z,16.78
2023-10-07T01:19:18.875Z,16.79
2023-10-07T01:21:56.297Z,16.77
2023-10-07T01:24:43.899Z,16.79
2023-10-07T01:27:27.326Z,16.77
2023-10-07T01:30:01.529Z,16.81
2023-10-07T01:32:35.132Z,16.83
2023-10-07T01:35:12.586Z,16.79
2023-10-07T01:37:52.587Z,16.78
2023-10-07T01:40:19.947Z,16.80
2023-10-07T01:42:47.315Z,16.83
2023-10-07T01:45:23.779Z,16.82
2023-10-07T01:47:55.884Z,16.80
2023-10-07T01:50:26.235Z,16.86
2023-10-07T01:52:57.083Z,16.82
2023-10-07T01:55:29.155Z,16.88
2023-10-07T01:57:57.089Z,16.78
2023-10-07T02:00:41.525Z,16.83
2023-10-07T02:03:10.992Z,16.78
2023-10-07T02:05:58.418Z,16.84
2023-10-07T02:08:26.807Z,16.88
2023-10-07T02:11:00.357Z,16.79
2023-10-07T02:13:31.456Z,16.80
2023-10-07T02:15:59.036Z,16.83
2023-10-07T02:18:29.614Z,16.84
2023-10-07T02:21:08.171Z,16.81
2023-10-07T02:23:41.483Z,16.78
2023-10-07T02:26:16.056Z,16.74
2023-10-07T02:28:45.491Z,16.76
2023-10-07T02:31:16.691Z,16.78
2023-10-07T02:33:44.432Z,16.83
2023-10-07T02:36:29.819Z,16.79
2023-10-07T02:39:20.018Z,16.76
2023-10-07T02:41:48.113Z,16.77
2023-10-07T02:44:29.103Z,16.72
2023-10-07T02:46:57.935Z,16.74
2023-10-07T02:49:26.905Z,16.73
2023-10-07T02:51:57.308Z,16.73
2023-10-07T02:54:33.448Z,16.72
2023-10-07T02:57:22.771Z,16.70
2023-10-07T02:59:52.772Z,16.70
2023-10-07T03:02:27.685Z,16.72
2023-10-07T03:05:11.351Z,16.69
2023-10-07T03:07:42.925Z,16.68
2023-10-07T03:10:18.544Z,16.67
2023-10-07T03:12:57.857Z,16.68
2023-10-07T03:15:47.009Z,16.72
2023-10-07T03:18:23.119Z,16.67
2023-10-07T03:21:02.073Z,16.64
2023-10-07T03:23:37.304Z,16.62
2023-10-07T03:26:04.673Z,16.70
2023-10-07T03:28:37.625Z,16.62
2023-10-07T03:31:14.432Z,16.59
2023-10-07T03:33:45.984Z,16.64
2023-10-07T03:36:23.958Z,16.63
2023-10-07T03:39:11.485Z,16.64
2023-10-07T03:41:49.975Z,16.57
2023-10-07T03:44:23.760Z,16.51
2023-10-07T03:46:58.494Z,16.54
2023-10-07T03:49:34.794Z,16.58
2023-10-07T03:52:09.455Z,16.56
2023-10-07T03:54:37.253Z,16.53
2023-10-07T03:57:04.489Z,16.35
2023-10-07T03:59:40.981Z,16.25
2023-10-07T04:02:41.066Z,16.24
2023-10-07T04:05:11.851Z,16.26
2023-10-07T04:07:40.735Z,16.17
2023-10-07T04:10:21.781Z,16.20
2023-10-07T04:12:50.577Z,16.05
2023-10-07T04:15:29.332Z,16.03
2023-10-07T04:17:58.780Z,16.05
2023-10-07T04:20:43.565Z,16.00
2023-10-07T04:23:10.827Z,15.99
2023-10-07T04:25:44.981Z,15.97
2023-10-07T04:28:14.982Z,15.83
2023-10-07T04:30:48.309Z,15.87
2023-10-07T04:33:19.018Z,15.80
2023-10-07T04:35:51.633Z,15.72
2023-10-07T04:38:42.072Z,15.66
2023-10-07T04:41:24.356Z,15.57
2023-10-07T04:44:00.521Z,15.56
2023-10-07T04:46:31.019Z,15.49
2023-10-07T04:49:13.952Z,15.45
2023-10-07T04:51:44.502Z,15.46
2023-10-07T04:54:13.513Z,15.44
2023-10-07T04:56:41.129Z,15.49
2023-10-07T04:59:10.661Z,15.39
2023-10-07T05:01:43.058Z,15.43
2023-10-07T05:04:11.818Z,15.40
2023-10-07T05:06:39.808Z,15.44
2023-10-07T05:09:10.272Z,15.41
2023-10-07T05:11:42.419Z,15.43
2023-10-07T05:14:11.888Z,15.47
2023-10-07T05:16:39.703Z,15.48
2023-10-07T05:19:10.743Z,15.41
2023-10-07T05:21:45.440Z,15.57
2023-10-07T05:24:12.980Z,15.52
2023-10-07T05:26:43.705Z,15.50
2023-10-07T05:29:14.231Z,15.50
2023-10-07T05:31:43.904Z,15.63
2023-10-07T05:34:11.841Z,15.58
2023-10-07T05:36:40.129Z,15.62
2023-10-07T05:39:09.311Z,15.55
2023-10-07T05:41:40.575Z,15.55
2023-10-07T05:44:10.928Z,15.97
2023-10-07T05:46:38.431Z,15.73
2023-10-07T05:49:07.456Z,15.64
2023-10-07T05:51:37.388Z,15.68
2023-10-07T05:54:06.393Z,15.74
2023-10-07T05:56:33.673Z,15.75
2023-10-07T05:59:02.953Z,15.84
2023-10-07T06:01:34.900Z,16.01
2023-10-07T06:04:02.466Z,16.11
2023-10-07T06:06:31.318Z,16.14
2023-10-07T06:09:01.586Z,16.17
2023-10-07T06:11:33.258Z,16.23
2023-10-07T06:14:00.558Z,16.32
2023-10-07T06:16:30.659Z,16.24
2023-10-07T06:18:59.715Z,16.35
2023-10-07T06:21:30.411Z,16.29
2023-10-07T06:24:01.194Z,16.17
2023-10-07T06:26:31.416Z,16.11
2023-10-07T06:29:07.049Z,16.10
2023-10-07T06:31:34.860Z,16.18
2023-10-07T06:34:04.762Z,16.08
2023-10-07T06:36:33.345Z,16.16
2023-10-07T06:39:02.750Z,16.20
2023-10-07T06:41:31.034Z,16.23
2023-10-07T06:44:09.798Z,16.20
2023-10-07T06:46:43.784Z,16.17
2023-10-07T06:49:23.060Z,16.20
2023-10-07T06:51:55.101Z,16.23
2023-10-07T06:54:26.408Z,16.20
2023-10-07T06:56:56.501Z,16.23
2023-10-07T06:59:29.060Z,16.25
2023-10-07T07:02:06.487Z,16.21
2023-10-07T07:04:36.553Z,16.22
2023-10-07T07:07:17.272Z,16.28
2023-10-07T07:09:50.860Z,16.24
2023-10-07T07:12:22.863Z,16.15
2023-10-07T07:15:06.727Z,16.18
2023-10-07T07:17:37.524Z,16.16
2023-10-07T07:20:12.607Z,16.20
2023-10-07T07:22:47.460Z,16.16
2023-10-07T07:25:28.932Z,16.18
2023-10-07T07:27:59.376Z,16.20
2023-10-07T07:30:33.492Z,16.22
2023-10-07T07:33:10.155Z,16.24
2023-10-07T07:35:45.179Z,16.22
2023-10-07T07:38:33.517Z,16.21
2023-10-07T07:41:07.344Z,16.26
2023-10-07T07:43:40.095Z,16.28
2023-10-07T07:46:18.940Z,16.32
2023-10-07T07:48:46.615Z,16.32
2023-10-07T07:51:21.937Z,16.28
2023-10-07T07:53:49.403Z,16.31
2023-10-07T07:56:17.793Z,16.33
2023-10-07T07:58:49.986Z,16.26
2023-10-07T08:01:21.714Z,16.32
2023-10-07T08:03:49.170Z,16.27
2023-10-07T08:06:26.595Z,16.22
2023-10-07T08:08:56.981Z,16.26
2023-10-07T08:11:24.149Z,16.23
2023-10-07T08:13:51.505Z,16.21
2023-10-07T08:16:20.490Z,16.24
2023-10-07T08:18:54.931Z,16.27
2023-10-07T08:21:29.698Z,16.19
2023-10-07T08:24:02.513Z,16.21
2023-10-07T08:26:35.578Z,16.26
2023-10-07T08:29:03.095Z,16.25
2023-10-07T08:31:40.548Z,16.22
2023-10-07T08:34:12.012Z,16.21
2023-10-07T08:36:48.216Z,16.24
2023-10-07T08:39:28.192Z,16.18
2023-10-07T08:41:59.439Z,16.20
2023-10-07T08:44:32.829Z,16.21
2023-10-07T08:47:06.594Z,16.17
2023-10-07T08:49:37.447Z,16.26
2023-10-07T08:52:10.700Z,16.16
2023-10-07T08:54:45.579Z,16.19
2023-10-07T08:57:20.643Z,16.20
2023-10-07T08:59:53.286Z,16.26
2023-10-07T09:02:28.502Z,16.23
2023-10-07T09:05:00.554Z,16.24
2023-10-07T09:07:32.353Z,16.25
2023-10-07T09:10:16.022Z,16.27
2023-10-07T09:12:49.978Z,16.30
2023-10-07T09:15:22.420Z,16.34
2023-10-07T09:17:49.805Z,16.28
2023-10-07T09:20:30.249Z,16.29
2023-10-07T09:23:08.426Z,16.30
2023-10-07T09:25:35.813Z,16.39
2023-10-07T09:28:08.030Z,16.42
2023-10-07T09:30:44.654Z,16.49
2023-10-07T09:33:20.224Z,16.44
2023-10-07T09:36:01.235Z,16.49
2023-10-07T09:38:34.827Z,16.46
2023-10-07T09:41:14.600Z,16.48
2023-10-07T09:43:48.714Z,16.49
2023-10-07T09:46:37.293Z,16.53
2023-10-07T09:49:07.424Z,16.59
2023-10-07T09:51:45.901Z,16.57
2023-10-07T09:54:50.441Z,16.57
2023-10-07T09:57:43.628Z,16.70
2023-10-07T10:00:31.857Z,16.77
2023-10-07T10:03:37.382Z,16.71
2023-10-07T10:06:37.596Z,16.67
2023-10-07T10:09:14.857Z,16.74
2023-10-07T10:12:16.938Z,16.73
2023-10-07T10:15:03.046Z,16.75
2023-10-07T10:17:41.527Z,16.86
2023-10-07T10:20:15.853Z,16.86
2023-10-07T10:23:00.584Z,16.81
2023-10-07T10:25:37.861Z,16.81
2023-10-07T10:28:08.718Z,16.90
2023-10-07T10:30:47.373Z,16.88
2023-10-07T10:33:22.295Z,16.88
2023-10-07T10:35:53.020Z,16.84
2023-10-07T10:38:20.647Z,16.83
2023-10-07T10:40:48.125Z,16.79
2023-10-07T10:43:26.825Z,16.85
2023-10-07T10:46:08.738Z,16.84
2023-10-07T10:48:38.268Z,16.90
2023-10-07T10:51:06.777Z,16.92
2023-10-07T10:53:37.669Z,16.92
2023-10-07T10:56:05.004Z,16.90
2023-10-07T10:58:32.240Z,16.94
2023-10-07T11:00:59.982Z,16.92
2023-10-07T11:03:28.973Z,16.94
2023-10-07T11:05:58.224Z,16.99
2023-10-07T11:08:26.988Z,16.96
2023-10-07T11:10:58.495Z,17.02
2023-10-07T11:13:28.086Z,17.16
2023-10-07T11:16:10.813Z,17.37
2023-10-07T11:18:46.099Z,17.51
2023-10-07T11:21:19.511Z,17.63
2023-10-07T11:23:53.705Z,17.67
2023-10-07T11:26:27.713Z,17.71
2023-10-07T11:28:58.164Z,17.72
2023-10-07T11:31:31.553Z,17.64
2023-10-07T11:34:00.346Z,17.63
2023-10-07T11:36:27.742Z,17.66
2023-10-07T11:38:57.265Z,17.69
2023-10-07T11:41:24.548Z,17.76
2023-10-07T11:43:53.516Z,17.91
2023-10-07T11:46:21.269Z,17.93
2023-10-07T11:48:48.520Z,18.01
2023-10-07T11:51:16.586Z,17.94
2023-10-07T11:53:43.791Z,18.07
2023-10-07T11:56:13.454Z,18.34
2023-10-07T11:58:42.972Z,18.29
2023-10-07T12:01:10.199Z,18.35
2023-10-07T12:03:43.450Z,18.31
2023-10-07T12:06:10.746Z,18.50
2023-10-07T12:08:37.938Z,18.58
2023-10-07T12:11:06.594Z,18.50
2023-10-07T12:13:33.967Z,18.45
2023-10-07T12:16:05.933Z,18.56
2023-10-07T12:18:33.833Z,18.52
2023-10-07T12:21:05.185Z,18.70
2023-10-07T12:23:34.495Z,18.58
2023-10-07T12:26:02.729Z,18.47
2023-10-07T12:28:31.604Z,18.39
2023-10-07T12:30:59.565Z,18.33
2023-10-07T12:33:36.869Z,18.35
2023-10-07T12:36:16.051Z,18.36
2023-10-07T12:38:43.880Z,18.36
2023-10-07T12:41:14.240Z,18.23
2023-10-07T12:43:41.838Z,18.23
2023-10-07T12:46:11.059Z,18.26
2023-10-07T12:48:41.430Z,18.18
2023-10-07T12:51:09.785Z,18.23
2023-10-07T12:53:37.298Z,18.17
2023-10-07T12:56:15.607Z,18.16
2023-10-07T12:58:43.663Z,18.14
2023-10-07T13:01:13.329Z,18.13
2023-10-07T13:03:42.253Z,18.12
2023-10-07T13:06:11.491Z,18.16
2023-10-07T13:08:39.960Z,18.15
2023-10-07T13:11:21.922Z,18.14
2023-10-07T13:13:49.229Z,18.17
2023-10-07T13:16:18.373Z,18.17
2023-10-07T13:18:45.791Z,18.17
2023-10-07T13:21:19.923Z,18.15
2023-10-07T13:23:48.031Z,18.22
2023-10-07T13:26:16.463Z,18.25
2023-10-07T13:28:49.269Z,18.28
2023-10-07T13:31:18.588Z,18.30
2023-10-07T13:33:47.653Z,18.31
2023-10-07T13:36:14.946Z,18.26
2023-10-07T13:38:42.266Z,18.33
2023-10-07T13:41:09.799Z,18.39
2023-10-07T13:43:37.097Z,18.33
2023-10-07T13:46:14.275Z,18.30
2023-10-07T13:48:44.193Z,18.33
2023-10-07T13:51:11.603Z,18.35
2023-10-07T13:53:52.275Z,18.35
2023-10-07T13:56:44.634Z,18.42
2023-10-07T13:59:12.443Z,18.44
2023-10-07T14:01:40.399Z,18.46
2023-10-07T14:04:07.814Z,18.44
2023-10-07T14:06:37.374Z,18.44
2023-10-07T14:09:05.622Z,18.50
2023-10-07T14:11:33.187Z,18.50
2023-10-07T14:14:01.275Z,18.52
2023-10-07T14:16:28.586Z,18.56
2023-10-07T14:18:55.770Z,18.58
2023-10-07T14:21:26.536Z,18.63
2023-10-07T14:23:53.819Z,18.65
2023-10-07T14:26:21.053Z,18.79
2023-10-07T14:28:48.350Z,18.80
2023-10-07T14:31:19.663Z,18.83
2023-10-07T14:33:47.472Z,18.82
2023-10-07T14:36:15.363Z,18.82
2023-10-07T14:38:46.550Z,18.80
2023-10-07T14:41:14.709Z,18.80
2023-10-07T14:43:42.344Z,18.82
2023-10-07T14:46:12.991Z,18.79
2023-10-07T14:48:48.655Z,18.74
2023-10-07T14:51:18.853Z,18.76
2023-10-07T14:53:47.911Z,18.80
2023-10-07T14:56:22.493Z,18.80
2023-10-07T14:58:50.988Z,18.83
2023-10-07T15:01:23.321Z,18.81
2023-10-07T15:03:52.155Z,18.73
2023-10-07T15:06:22.304Z,18.76
2023-10-07T15:08:51.134Z,18.74
2023-10-07T15:11:21.224Z,18.81
2023-10-07T15:13:52.570Z,18.75
2023-10-07T15:16:22.153Z,18.74
2023-10-07T15:18:50.908Z,18.72
2023-10-07T15:21:19.030Z,18.71
2023-10-07T15:23:46.946Z,18.72
2023-10-07T15:26:19.744Z,18.75
2023-10-07T15:28:49.083Z,18.81
2023-10-07T15:31:25.128Z,18.83
2023-10-07T15:34:08.313Z,18.88
2023-10-07T15:36:39.521Z,18.86
2023-10-07T15:39:07.186Z,18.87
2023-10-07T15:41:34.629Z,18.85
2023-10-07T15:44:02.356Z,18.84
2023-10-07T15:46:32.507Z,18.80
2023-10-07T15:49:11.841Z,18.82
2023-10-07T15:51:40.523Z,18.79
2023-10-07T15:54:10.816Z,18.77
2023-10-07T15:56:42.407Z,18.78
2023-10-07T15:59:11.361Z,18.79
2023-10-07T16:01:46.179Z,18.77
2023-10-07T16:04:16.122Z,18.72
2023-10-07T16:06:47.334Z,18.77
2023-10-07T16:09:14.692Z,18.69
2023-10-07T16:11:44.374Z,18.72
2023-10-07T16:14:12.282Z,18.68
2023-10-07T16:16:39.686Z,18.69
2023-10-07T16:19:08.033Z,18.69
2023-10-07T16:21:41.892Z,18.71
2023-10-07T16:24:12.318Z,18.67
2023-10-07T16:26:44.283Z,18.70
2023-10-07T16:29:13.103Z,18.70
2023-10-07T16:31:40.728Z,18.70
2023-10-07T16:34:08.027Z,18.65
2023-10-07T16:36:35.430Z,18.68
2023-10-07T16:39:03.390Z,18.72
2023-10-07T16:41:32.561Z,18.69
2023-10-07T16:44:00.031Z,18.70
2023-10-07T16:46:30.411Z,18.68
2023-10-07T16:48:57.806Z,18.68
2023-10-07T16:51:25.336Z,18.67
2023-10-07T16:53:52.585Z,18.67
2023-10-07T16:56:19.823Z,18.64
2023-10-07T16:58:47.052Z,18.62
2023-10-07T17:01:14.743Z,18.67
2023-10-07T17:03:42.600Z,18.62
2023-10-07T17:06:10.048Z,18.63
2023-10-07T17:08:38.280Z,18.63
2023-10-07T17:11:05.896Z,18.61
2023-10-07T17:13:33.262Z,18.64
2023-10-07T17:16:00.974Z,18.60
2023-10-07T17:18:28.910Z,18.68
2023-10-07T17:21:00.074Z,18.69
2023-10-07T17:23:28.201Z,18.61
2023-10-07T17:25:56.027Z,18.67
2023-10-07T17:28:23.677Z,18.62
2023-10-07T17:30:51.399Z,18.67
2023-10-07T17:33:21.784Z,18.67
2023-10-07T17:35:49.949Z,18.65
2023-10-07T17:38:17.497Z,18.69
2023-10-07T17:40:47.234Z,18.61
2023-10-07T17:43:15.631Z,18.65
2023-10-07T17:45:45.850Z,18.65
2023-10-07T17:48:13.142Z,18.67
2023-10-07T17:50:41.476Z,18.63
2023-10-07T17:53:11.488Z,18.69
2023-10-07T17:55:38.743Z,18.64
2023-10-07T17:58:06.773Z,18.63
2023-10-07T18:00:34.911Z,18.68
2023-10-07T18:03:03.766Z,18.59
2023-10-07T18:05:31.912Z,18.58
2023-10-07T18:07:59.413Z,18.57
2023-10-07T18:10:27.182Z,18.51
2023-10-07T18:12:58.179Z,18.58
2023-10-07T18:15:25.353Z,18.57
2023-10-07T18:17:52.937Z,18.54
2023-10-07T18:20:20.366Z,18.52
2023-10-07T18:22:51.596Z,18.49
2023-10-07T18:25:21.839Z,18.54
2023-10-07T18:27:49.821Z,18.54
2023-10-07T18:30:19.881Z,18.54
2023-10-07T18:32:48.851Z,18.54
2023-10-07T18:35:16.673Z,18.56
2023-10-07T18:37:44.097Z,18.58
2023-10-07T18:40:11.759Z,18.53
2023-10-07T18:42:39.013Z,18.52
2023-10-07T18:45:10.420Z,18.55
2023-10-07T18:47:37.903Z,18.58
2023-10-07T18:50:08.508Z,18.55
2023-10-07T18:52:35.873Z,18.55
2023-10-07T18:55:03.330Z,18.55
2023-10-07T18:57:31.704Z,18.54
2023-10-07T18:59:59.352Z,18.50
2023-10-07T19:02:26.663Z,18.41
2023-10-07T19:04:53.848Z,18.42
2023-10-07T19:07:21.050Z,18.42
2023-10-07T19:09:48.488Z,18.39
2023-10-07T19:12:17.577Z,18.45
2023-10-07T19:14:47.960Z,18.41
2023-10-07T19:17:15.171Z,18.44
2023-10-07T19:19:42.989Z,18.39
2023-10-07T19:22:10.203Z,18.39
2023-10-07T19:24:37.388Z,18.37
2023-10-07T19:27:05.087Z,18.36
2023-10-07T19:29:32.419Z,18.37
2023-10-07T19:32:00.083Z,18.34
2023-10-07T19:34:27.423Z,18.32
2023-10-07T19:36:54.613Z,18.40
2023-10-07T19:39:39.492Z,18.36
2023-10-07T19:42:09.067Z,18.36
2023-10-07T19:44:36.540Z,18.34
2023-10-07T19:47:04.134Z,18.34
2023-10-07T19:49:31.381Z,18.28
2023-10-07T19:51:58.592Z,18.26
2023-10-07T19:54:25.911Z,18.19
2023-10-07T19:56:53.396Z,18.28
2023-10-07T19:59:21.253Z,18.25
2023-10-07T20:01:49.775Z,18.23
2023-10-07T20:04:17.160Z,18.24
2023-10-07T20:06:44.597Z,18.23
2023-10-07T20:09:12.526Z,18.28
2023-10-07T20:11:41.454Z,18.19
2023-10-07T20:14:08.787Z,18.25
2023-10-07T20:16:35.986Z,18.23
2023-10-07T20:19:06.082Z,18.28
2023-10-07T20:21:34.168Z,18.19
2023-10-07T20:24:01.587Z,17.99
2023-10-07T20:26:29.233Z,17.83
2023-10-07T20:28:56.510Z,17.67
2023-10-07T20:31:23.861Z,17.55
2023-10-07T20:33:52.708Z,17.51
2023-10-07T20:36:20.046Z,17.49
2023-10-07T20:38:47.544Z,17.39
2023-10-07T20:41:14.832Z,17.32
2023-10-07T20:43:42.121Z,17.42
2023-10-07T20:46:09.417Z,17.37
2023-10-07T20:48:40.128Z,17.42
2023-10-07T20:51:15.223Z,17.15
2023-10-07T20:53:46.289Z,17.20
2023-10-07T20:56:16.236Z,17.06
2023-10-07T20:58:43.881Z,17.01
2023-10-07T21:01:19.060Z,16.97
2023-10-07T21:03:51.397Z,17.05
2023-10-07T21:06:21.221Z,17.02
2023-10-07T21:08:51.465Z,17.02
2023-10-07T21:11:24.638Z,16.91
2023-10-07T21:13:54.578Z,17.05
2023-10-07T21:16:21.802Z,16.65
2023-10-07T21:18:49.062Z,15.95
2023-10-07T21:21:16.274Z,15.79
2023-10-07T21:23:44.842Z,15.71
2023-10-07T21:26:21.872Z,15.83
2023-10-07T21:28:53.087Z,15.61
2023-10-07T21:31:20.678Z,15.51
2023-10-07T21:33:48.083Z,15.33
2023-10-07T21:36:15.390Z,15.19
2023-10-07T21:38:44.200Z,15.07
2023-10-07T21:41:13.117Z,15.38
2023-10-07T21:43:40.524Z,15.21
2023-10-07T21:46:07.849Z,15.08
2023-10-07T21:48:36.769Z,15.44
2023-10-07T21:51:09.105Z,14.99
2023-10-07T21:53:36.862Z,15.20
2023-10-07T21:56:07.204Z,14.97
2023-10-07T21:58:34.436Z,14.87
2023-10-07T22:01:10.579Z,14.69
2023-10-07T22:03:40.156Z,15.07
2023-10-07T22:06:07.657Z,15.02
2023-10-07T22:08:34.864Z,15.05
2023-10-07T22:11:02.072Z,14.59
2023-10-07T22:13:29.760Z,14.92
2023-10-07T22:15:57.196Z,14.61
2023-10-07T22:18:27.164Z,14.61
2023-10-07T22:20:56.657Z,15.03
2023-10-07T22:23:24.724Z,14.79
2023-10-07T22:25:53.474Z,14.67
2023-10-07T22:28:24.507Z,14.95
2023-10-07T22:30:53.013Z,14.83
2023-10-07T22:33:22.972Z,14.70
2023-10-07T22:35:54.202Z,14.48
2023-10-07T22:38:22.695Z,14.46
2023-10-07T22:41:01.278Z,14.59
2023-10-07T22:43:35.910Z,14.67
2023-10-07T22:46:05.282Z,14.64
2023-10-07T22:48:36.303Z,14.63
2023-10-07T22:51:25.541Z,14.77
2023-10-07T22:54:02.354Z,14.62
2023-10-07T22:56:32.331Z,14.42
2023-10-07T22:59:03.153Z,14.67
2023-10-07T23:01:49.796Z,14.82
2023-10-07T23:04:21.555Z,14.64
2023-10-07T23:07:13.197Z,14.54
2023-10-07T23:09:49.837Z,14.49
2023-10-07T23:12:28.429Z,14.30
2023-10-07T23:15:09.141Z,14.39
2023-10-07T23:17:40.091Z,14.56
2023-10-07T23:20:28.135Z,14.43
2023-10-07T23:23:12.939Z,14.01
2023-10-07T23:25:43.354Z,14.49
2023-10-07T23:28:23.460Z,14.83
2023-10-07T23:31:09.569Z,14.31
2023-10-07T23:33:39.401Z,14.41
2023-10-07T23:36:11.006Z,14.37
2023-10-07T23:38:39.723Z,14.41
2023-10-07T23:41:07.053Z,14.28
2023-10-07T23:43:37.376Z,14.24
2023-10-07T23:46:04.774Z,14.34
2023-10-07T23:48:32.292Z,14.24
2023-10-07T23:51:00.227Z,14.30
2023-10-07T23:53:31.691Z,14.28
2023-10-07T23:56:07.306Z,14.11
2023-10-07T23:58:50.925Z,14.14
